createdAt,value
2018-07-03T00:00:30.288Z,1.27
2018-07-03T00:02:33.391Z,1.10
2018-07-03T00:04:36.476Z,1.00
2018-07-03T00:06:39.580Z,1.00
2018-07-03T00:08:42.659Z,1.43
2018-07-03T00:10:45.735Z,1.27
2018-07-03T00:12:48.815Z,1.00
2018-07-03T00:14:51.899Z,0.90
2018-07-03T00:17:00.552Z,1.60
2018-07-03T00:19:04.162Z,1.00
2018-07-03T00:21:07.268Z,1.20
2018-07-03T00:23:10.372Z,1.30
2018-07-03T00:25:13.452Z,1.30
2018-07-03T00:27:17.372Z,1.03
2018-07-03T00:29:20.455Z,1.23
2018-07-03T00:31:23.564Z,1.00
2018-07-03T00:33:26.644Z,1.40
2018-07-03T00:35:29.796Z,1.17
2018-07-03T00:37:32.879Z,1.47
2018-07-03T00:39:35.961Z,1.23
2018-07-03T00:41:39.065Z,1.00
2018-07-03T00:43:42.144Z,1.10
2018-07-03T00:45:45.308Z,1.23
2018-07-03T00:47:48.391Z,1.47
2018-07-03T00:49:51.472Z,1.20
2018-07-03T00:51:54.580Z,1.30
2018-07-03T00:53:57.664Z,1.70
2018-07-03T00:56:00.800Z,1.30
2018-07-03T00:58:03.929Z,1.40
2018-07-03T01:00:18.335Z,1.47
2018-07-03T01:02:21.446Z,1.60
2018-07-03T01:04:24.538Z,1.60
2018-07-03T01:06:27.744Z,1.40
2018-07-03T01:08:30.871Z,1.70
2018-07-03T01:10:33.967Z,2.03
2018-07-03T01:12:36.848Z,1.50
2018-07-03T01:14:39.959Z,1.67
2018-07-03T01:16:43.064Z,1.90
2018-07-03T01:18:46.202Z,1.20
2018-07-03T01:20:49.311Z,1.87
2018-07-03T01:22:52.644Z,1.30
2018-07-03T01:24:55.804Z,1.37
2018-07-03T01:26:58.995Z,1.63
2018-07-03T01:29:02.088Z,1.37
2018-07-03T01:31:05.273Z,1.40
2018-07-03T01:33:08.376Z,1.60
2018-07-03T01:35:11.543Z,1.50
2018-07-03T01:37:14.623Z,1.40
2018-07-03T01:39:17.727Z,1.43
2018-07-03T01:41:20.821Z,1.67
2018-07-03T01:43:23.907Z,1.53
2018-07-03T01:45:26.991Z,1.77
2018-07-03T01:47:30.075Z,1.80
2018-07-03T01:49:33.164Z,2.17
2018-07-03T01:51:36.263Z,1.53
2018-07-03T01:53:39.368Z,2.00
2018-07-03T01:55:42.294Z,1.47
2018-07-03T01:57:45.399Z,1.80
2018-07-03T01:59:48.487Z,1.53
2018-07-03T02:01:51.588Z,1.73
2018-07-03T02:03:54.682Z,1.80
2018-07-03T02:05:57.785Z,1.63
2018-07-03T02:08:00.876Z,1.40
2018-07-03T02:10:04.163Z,1.67
2018-07-03T02:12:07.257Z,1.60
2018-07-03T02:14:10.354Z,1.40
2018-07-03T02:16:13.448Z,1.73
2018-07-03T02:18:16.552Z,1.77
2018-07-03T02:20:19.656Z,1.57
2018-07-03T02:22:22.744Z,1.90
2018-07-03T02:24:25.846Z,1.80
2018-07-03T02:26:29.408Z,2.20
2018-07-03T02:28:32.518Z,2.37
2018-07-03T02:30:35.645Z,1.80
2018-07-03T02:32:38.738Z,1.80
2018-07-03T02:34:41.820Z,2.00
2018-07-03T02:36:44.923Z,1.77
2018-07-03T02:38:48.088Z,1.90
2018-07-03T02:40:51.168Z,2.10
2018-07-03T02:42:54.278Z,1.20
2018-07-03T02:44:57.440Z,2.87
2018-07-03T02:47:00.549Z,2.20
2018-07-03T02:49:03.827Z,2.20
2018-07-03T02:51:06.936Z,1.53
2018-07-03T02:53:10.048Z,1.43
2018-07-03T02:55:12.907Z,1.93
2018-07-03T02:57:15.996Z,1.97
2018-07-03T02:59:19.080Z,1.70
2018-07-03T03:01:22.202Z,2.13
2018-07-03T03:03:25.325Z,2.00
2018-07-03T03:05:29.284Z,1.90
2018-07-03T03:07:32.392Z,1.90
2018-07-03T03:09:35.473Z,2.30
2018-07-03T03:11:38.651Z,2.40
2018-07-03T03:13:41.735Z,3.00
2018-07-03T03:15:44.828Z,2.13
2018-07-03T03:17:47.975Z,2.07
2018-07-03T03:19:51.078Z,2.10
2018-07-03T03:21:54.408Z,2.87
2018-07-03T03:23:57.510Z,2.70
2018-07-03T03:26:00.595Z,2.63
2018-07-03T03:28:03.726Z,2.53
2018-07-03T03:30:06.780Z,2.00
2018-07-03T03:32:09.888Z,3.30
2018-07-03T03:34:13.004Z,3.30
2018-07-03T03:36:16.108Z,2.07
2018-07-03T03:38:19.207Z,2.80
2018-07-03T03:40:22.295Z,2.90
2018-07-03T03:42:25.380Z,2.20
2018-07-03T03:44:28.489Z,2.60
2018-07-03T03:46:31.600Z,2.90
2018-07-03T03:48:34.705Z,2.90
2018-07-03T03:50:37.783Z,3.13
2018-07-03T03:52:40.871Z,2.50
2018-07-03T03:54:43.959Z,3.20
2018-07-03T03:56:47.052Z,2.43
2018-07-03T03:58:50.140Z,3.47
2018-07-03T04:00:53.357Z,2.47
2018-07-03T04:02:56.484Z,2.70
2018-07-03T04:04:59.568Z,2.40
2018-07-03T04:07:02.661Z,3.47
2018-07-03T04:09:07.888Z,3.73
2018-07-03T04:11:11.312Z,3.13
2018-07-03T04:13:14.384Z,2.23
2018-07-03T04:15:17.471Z,3.23
2018-07-03T04:17:20.584Z,2.70
2018-07-03T04:19:24.130Z,3.20
2018-07-03T04:21:27.232Z,3.17
2018-07-03T04:23:30.749Z,3.27
2018-07-03T04:25:33.827Z,3.67
2018-07-03T04:27:36.900Z,2.63
2018-07-03T04:29:40.000Z,3.60
2018-07-03T04:31:43.081Z,3.33
2018-07-03T04:33:46.166Z,2.80
2018-07-03T04:35:49.255Z,3.20
2018-07-03T04:37:52.323Z,3.70
2018-07-03T04:39:55.411Z,4.00
2018-07-03T04:41:58.519Z,3.80
2018-07-03T04:44:01.610Z,2.90
2018-07-03T04:46:04.735Z,3.70
2018-07-03T04:48:07.816Z,3.07
2018-07-03T04:50:10.939Z,3.70
2018-07-03T04:52:14.110Z,3.53
2018-07-03T04:54:17.210Z,4.00
2018-07-03T04:56:20.302Z,2.93
2018-07-03T04:58:23.381Z,3.37
2018-07-03T05:00:26.464Z,3.47
2018-07-03T05:02:29.635Z,3.40
2018-07-03T05:04:32.730Z,2.30
2018-07-03T05:06:35.819Z,2.37
2018-07-03T05:08:38.906Z,2.67
2018-07-03T05:10:41.996Z,2.30
2018-07-03T05:12:45.280Z,1.90
2018-07-03T05:14:48.355Z,1.60
2018-07-03T05:16:55.683Z,1.83
2018-07-03T05:18:58.811Z,1.70
2018-07-03T05:21:01.929Z,1.60
2018-07-03T05:23:05.017Z,2.10
2018-07-03T05:25:08.092Z,1.53
2018-07-03T05:27:11.183Z,2.00
2018-07-03T05:29:14.298Z,1.73
2018-07-03T05:31:17.396Z,2.20
2018-07-03T05:33:20.403Z,1.70
2018-07-03T05:35:23.459Z,1.33
2018-07-03T05:37:26.411Z,1.30
2018-07-03T05:39:29.584Z,1.57
2018-07-03T05:41:32.755Z,1.43
2018-07-03T05:43:35.857Z,1.63
2018-07-03T05:45:38.935Z,1.47
2018-07-03T05:47:42.032Z,1.47
2018-07-03T05:49:45.411Z,1.27
2018-07-03T05:51:48.511Z,1.70
2018-07-03T05:53:51.672Z,1.33
2018-07-03T05:55:54.878Z,1.10
2018-07-03T05:57:58.792Z,1.60
2018-07-03T06:00:01.949Z,1.10
2018-07-03T06:02:05.205Z,1.43
2018-07-03T06:04:08.320Z,1.30
2018-07-03T06:06:11.403Z,1.27
2018-07-03T06:08:14.600Z,1.20
2018-07-03T06:10:17.692Z,1.33
2018-07-03T06:12:21.011Z,1.47
2018-07-03T06:14:24.109Z,1.20
2018-07-03T06:16:27.277Z,1.00
2018-07-03T06:18:30.364Z,1.10
2018-07-03T06:20:33.435Z,1.40
2018-07-03T06:22:36.979Z,1.10
2018-07-03T06:24:40.065Z,1.20
2018-07-03T06:26:43.144Z,1.00
2018-07-03T06:28:46.287Z,1.17
2018-07-03T06:30:49.360Z,1.33
2018-07-03T06:32:52.540Z,1.03
2018-07-03T06:34:55.641Z,1.17
2018-07-03T06:36:58.715Z,1.23
2018-07-03T06:39:01.905Z,1.20
2018-07-03T06:41:04.980Z,1.10
2018-07-03T06:43:08.176Z,1.20
2018-07-03T06:45:11.365Z,0.90
2018-07-03T06:47:14.463Z,1.20
2018-07-03T06:49:17.544Z,1.20
2018-07-03T06:51:20.674Z,1.00
2018-07-03T06:53:23.780Z,0.93
2018-07-03T06:55:26.896Z,1.30
2018-07-03T06:57:29.979Z,1.00
2018-07-03T06:59:33.069Z,1.10
2018-07-03T07:01:37.140Z,0.73
2018-07-03T07:03:40.380Z,0.90
2018-07-03T07:05:43.480Z,1.17
2018-07-03T07:07:46.564Z,1.10
2018-07-03T07:09:49.664Z,1.60
2018-07-03T07:11:52.751Z,1.70
2018-07-03T07:13:55.695Z,1.47
2018-07-03T07:15:58.768Z,1.47
2018-07-03T07:18:01.853Z,1.30
2018-07-03T07:20:05.652Z,1.27
2018-07-03T07:22:08.739Z,1.50
2018-07-03T07:24:11.841Z,1.40
2018-07-03T07:26:14.932Z,1.40
2018-07-03T07:28:18.018Z,1.10
2018-07-03T07:30:21.124Z,1.20
2018-07-03T07:32:24.229Z,1.87
2018-07-03T07:34:27.332Z,1.10
2018-07-03T07:36:30.428Z,1.20
2018-07-03T07:38:33.513Z,1.20
2018-07-03T07:40:36.604Z,1.47
2018-07-03T07:42:39.683Z,1.30
2018-07-03T07:44:42.776Z,1.30
2018-07-03T07:46:45.872Z,1.20
2018-07-03T07:48:48.955Z,1.07
2018-07-03T07:50:52.027Z,1.50
2018-07-03T07:52:55.109Z,1.40
2018-07-03T07:54:58.233Z,1.30
2018-07-03T07:57:01.305Z,1.60
2018-07-03T07:59:04.565Z,1.37
2018-07-03T08:01:07.651Z,1.10
2018-07-03T08:03:10.740Z,1.20
2018-07-03T08:05:13.819Z,1.23
2018-07-03T08:07:17.798Z,1.20
2018-07-03T08:09:20.889Z,0.93
2018-07-03T08:11:24.512Z,0.90
2018-07-03T08:13:27.675Z,1.37
2018-07-03T08:15:30.768Z,1.13
2018-07-03T08:17:33.956Z,1.23
2018-07-03T08:19:37.031Z,1.03
2018-07-03T08:21:40.224Z,1.43
2018-07-03T08:23:43.303Z,0.90
2018-07-03T08:25:46.406Z,1.47
2018-07-03T08:27:49.481Z,1.40
2018-07-03T08:29:52.567Z,1.03
2018-07-03T08:31:55.656Z,1.30
2018-07-03T08:33:58.800Z,0.90
2018-07-03T08:36:01.836Z,1.20
2018-07-03T08:38:04.924Z,1.20
2018-07-03T08:40:08.202Z,1.00
2018-07-03T08:42:11.294Z,1.23
2018-07-03T08:44:14.380Z,1.00
2018-07-03T08:46:17.479Z,0.97
2018-07-03T08:48:20.559Z,1.13
2018-07-03T08:50:23.655Z,0.97
2018-07-03T08:52:26.759Z,1.00
2018-07-03T08:54:29.852Z,1.30
2018-07-03T08:56:32.944Z,1.10
2018-07-03T08:58:36.044Z,0.90
2018-07-03T09:00:39.136Z,1.57
2018-07-03T09:02:42.239Z,0.90
2018-07-03T09:04:45.336Z,0.97
2018-07-03T09:06:48.449Z,1.00
2018-07-03T09:08:51.592Z,1.13
2018-07-03T09:10:54.705Z,1.03
2018-07-03T09:12:57.803Z,0.90
2018-07-03T09:15:00.740Z,1.00
2018-07-03T09:17:11.053Z,0.90
2018-07-03T09:19:14.179Z,1.00
2018-07-03T09:21:17.280Z,1.07
2018-07-03T09:23:20.391Z,0.80
2018-07-03T09:25:23.342Z,0.90
2018-07-03T09:27:26.451Z,1.00
2018-07-03T09:29:29.548Z,0.87
2018-07-03T09:31:32.673Z,0.90
2018-07-03T09:33:35.890Z,0.87
2018-07-03T09:35:38.985Z,1.07
2018-07-03T09:37:42.114Z,0.80
2018-07-03T09:39:45.215Z,1.23
2018-07-03T09:41:48.317Z,0.90
2018-07-03T09:43:51.678Z,1.03
2018-07-03T09:45:54.793Z,1.00
2018-07-03T09:47:57.885Z,0.90
2018-07-03T09:50:00.979Z,0.90
2018-07-03T09:52:04.139Z,0.80
2018-07-03T09:54:07.331Z,0.90
2018-07-03T09:56:10.425Z,1.53
2018-07-03T09:58:13.520Z,0.83
2018-07-03T10:00:20.857Z,0.83
2018-07-03T10:02:23.976Z,1.00
2018-07-03T10:04:27.060Z,1.10
2018-07-03T10:06:30.160Z,1.17
2018-07-03T10:08:33.235Z,0.87
2018-07-03T10:10:36.315Z,0.80
2018-07-03T10:12:39.421Z,1.20
2018-07-03T10:14:42.503Z,1.07
2018-07-03T10:16:45.588Z,0.70
2018-07-03T10:18:48.742Z,0.97
2018-07-03T10:20:51.684Z,1.40
2018-07-03T10:22:55.132Z,1.13
2018-07-03T10:24:58.612Z,1.00
2018-07-03T10:27:02.682Z,0.80
2018-07-03T10:29:05.761Z,0.70
2018-07-03T10:31:10.188Z,0.80
2018-07-03T10:33:13.929Z,0.80
2018-07-03T10:35:17.051Z,0.90
2018-07-03T10:37:20.293Z,0.87
2018-07-03T10:39:24.009Z,1.00
2018-07-03T10:41:27.813Z,0.97
2018-07-03T10:43:31.355Z,0.97
2018-07-03T10:45:34.211Z,0.93
2018-07-03T10:47:37.736Z,0.80
2018-07-03T10:49:41.088Z,0.90
2018-07-03T10:51:44.268Z,1.10
2018-07-03T10:53:47.372Z,1.10
2018-07-03T10:55:50.480Z,1.37
2018-07-03T10:57:53.624Z,0.80
2018-07-03T10:59:56.803Z,0.87
2018-07-03T11:01:59.908Z,0.90
2018-07-03T11:04:03.017Z,0.80
2018-07-03T11:06:06.128Z,0.77
2018-07-03T11:08:09.225Z,1.00
2018-07-03T11:10:12.319Z,1.00
2018-07-03T11:12:15.419Z,1.10
2018-07-03T11:14:18.538Z,0.90
2018-07-03T11:16:21.632Z,0.70
2018-07-03T11:18:24.737Z,1.00
2018-07-03T11:20:27.958Z,1.10
2018-07-03T11:22:31.533Z,0.97
2018-07-03T11:24:34.643Z,0.80
2018-07-03T11:26:37.784Z,1.00
2018-07-03T11:28:40.832Z,0.80
2018-07-03T11:30:43.945Z,1.00
2018-07-03T11:32:47.041Z,0.90
2018-07-03T11:34:50.166Z,0.90
2018-07-03T11:36:53.384Z,0.87
2018-07-03T11:38:56.493Z,0.80
2018-07-03T11:40:59.590Z,1.10
2018-07-03T11:43:02.736Z,0.80
2018-07-03T11:45:05.795Z,0.90
2018-07-03T11:47:08.888Z,0.90
2018-07-03T11:49:11.980Z,0.80
2018-07-03T11:51:15.256Z,0.70
2018-07-03T11:53:18.336Z,0.80
2018-07-03T11:55:21.436Z,1.00
2018-07-03T11:57:24.524Z,0.90
2018-07-03T11:59:27.635Z,0.80
2018-07-03T12:01:30.572Z,0.97
2018-07-03T12:03:33.599Z,0.80
2018-07-03T12:05:36.677Z,0.70
2018-07-03T12:07:39.782Z,0.80
2018-07-03T12:09:42.862Z,0.90
2018-07-03T12:11:46.112Z,0.83
2018-07-03T12:13:49.200Z,0.80
2018-07-03T12:15:52.299Z,0.70
2018-07-03T12:17:55.447Z,0.93
2018-07-03T12:19:58.540Z,0.87
2018-07-03T12:22:01.640Z,0.80
2018-07-03T12:24:05.085Z,0.70
2018-07-03T12:26:20.888Z,1.00
2018-07-03T12:28:24.296Z,0.70
2018-07-03T12:30:28.285Z,1.00
2018-07-03T12:32:31.386Z,0.83
2018-07-03T12:34:34.913Z,2.10
2018-07-03T12:36:38.019Z,0.93
2018-07-03T12:38:41.119Z,0.90
2018-07-03T12:40:44.199Z,1.00
2018-07-03T12:42:47.427Z,0.80
2018-07-03T12:44:50.528Z,0.97
2018-07-03T12:46:53.793Z,0.80
2018-07-03T12:48:56.879Z,0.90
2018-07-03T12:51:00.160Z,0.70
2018-07-03T12:53:03.256Z,1.00
2018-07-03T12:55:06.355Z,1.00
2018-07-03T12:57:09.438Z,0.90
2018-07-03T12:59:12.500Z,1.10
2018-07-03T13:01:15.578Z,0.80
2018-07-03T13:03:18.671Z,0.87
2018-07-03T13:05:21.956Z,0.80
2018-07-03T13:07:25.069Z,1.00
2018-07-03T13:09:28.156Z,1.10
2018-07-03T13:11:31.246Z,1.00
2018-07-03T13:13:34.332Z,1.00
2018-07-03T13:15:37.408Z,0.80
2018-07-03T13:17:40.513Z,1.00
2018-07-03T13:19:43.595Z,1.00
2018-07-03T13:21:46.688Z,0.83
2018-07-03T13:23:49.789Z,0.80
2018-07-03T13:25:53.009Z,1.03
2018-07-03T13:27:56.088Z,0.80
2018-07-03T13:29:59.198Z,1.60
2018-07-03T13:32:02.288Z,0.80
2018-07-03T13:34:05.524Z,0.93
2018-07-03T13:36:08.584Z,1.00
2018-07-03T13:38:11.715Z,0.80
2018-07-03T13:40:14.810Z,0.77
2018-07-03T13:42:17.907Z,1.13
2018-07-03T13:44:21.004Z,0.80
2018-07-03T13:46:24.083Z,0.80
2018-07-03T13:48:27.292Z,0.97
2018-07-03T13:50:30.275Z,1.10
2018-07-03T13:52:33.389Z,0.90
2018-07-03T13:54:36.513Z,1.13
2018-07-03T13:56:39.599Z,0.70
2018-07-03T13:58:42.699Z,1.00
2018-07-03T14:00:45.784Z,0.80
2018-07-03T14:02:48.879Z,0.80
2018-07-03T14:04:51.972Z,1.40
2018-07-03T14:06:55.112Z,0.90
2018-07-03T14:08:58.315Z,0.80
2018-07-03T14:11:01.395Z,0.97
2018-07-03T14:13:04.486Z,0.87
2018-07-03T14:15:08.687Z,0.87
2018-07-03T14:17:11.771Z,0.73
2018-07-03T14:19:14.875Z,0.90
2018-07-03T14:21:18.008Z,0.97
2018-07-03T14:23:21.096Z,0.90
2018-07-03T14:25:24.220Z,1.00
2018-07-03T14:27:27.333Z,0.87
2018-07-03T14:29:30.444Z,0.80
2018-07-03T14:31:33.576Z,0.80
2018-07-03T14:33:36.680Z,0.90
2018-07-03T14:35:40.068Z,0.70
2018-07-03T14:37:43.165Z,1.00
2018-07-03T14:39:46.103Z,1.10
2018-07-03T14:41:49.256Z,0.93
2018-07-03T14:43:52.344Z,1.10
2018-07-03T14:45:55.480Z,0.90
2018-07-03T14:47:58.587Z,0.90
2018-07-03T14:50:01.530Z,0.93
2018-07-03T14:52:04.776Z,0.90
2018-07-03T14:54:07.892Z,1.10
2018-07-03T14:56:10.991Z,0.90
2018-07-03T14:58:14.084Z,0.80
2018-07-03T15:00:17.164Z,0.80
2018-07-03T15:02:20.368Z,0.77
2018-07-03T15:04:23.368Z,0.90
2018-07-03T15:06:26.459Z,0.90
2018-07-03T15:08:29.528Z,1.00
2018-07-03T15:10:32.632Z,0.90
2018-07-03T15:12:35.725Z,30.50
2018-07-03T15:14:38.651Z,20.47
2018-07-03T15:16:41.776Z,2.20
2018-07-03T15:18:50.277Z,0.80
2018-07-03T15:20:53.380Z,1.10
2018-07-03T15:22:56.444Z,1.10
2018-07-03T15:24:59.527Z,1.00
2018-07-03T15:27:02.633Z,0.93
2018-07-03T15:29:05.708Z,1.00
2018-07-03T15:31:08.804Z,0.90
2018-07-03T15:33:11.908Z,0.80
2018-07-03T15:35:15.113Z,0.70
2018-07-03T15:37:18.213Z,0.90
2018-07-03T15:39:21.310Z,0.80
2018-07-03T15:41:24.388Z,0.80
2018-07-03T15:43:27.477Z,0.80
2018-07-03T15:45:30.569Z,0.97
2018-07-03T15:47:33.902Z,0.90
2018-07-03T15:49:36.977Z,0.80
2018-07-03T15:51:40.075Z,0.97
2018-07-03T15:53:43.198Z,0.90
2018-07-03T15:55:46.368Z,1.10
2018-07-03T15:57:49.477Z,0.90
2018-07-03T15:59:52.571Z,1.13
2018-07-03T16:01:55.672Z,0.67
2018-07-03T16:04:10.605Z,0.80
2018-07-03T16:07:22.823Z,0.90
2018-07-03T16:09:26.023Z,0.80
2018-07-03T16:11:29.059Z,0.87
2018-07-03T16:13:32.162Z,0.80
2018-07-03T16:15:35.249Z,0.70
2018-07-03T16:17:38.356Z,1.07
2018-07-03T16:19:46.868Z,1.17
2018-07-03T16:21:49.980Z,1.20
2018-07-03T16:23:53.081Z,27.80
2018-07-03T16:25:56.185Z,12.37
2018-07-03T16:27:59.318Z,1.57
2018-07-03T16:30:02.780Z,2.40
2018-07-03T16:32:05.913Z,2.90
2018-07-03T16:34:08.995Z,7.20
2018-07-03T16:36:12.088Z,5.80
2018-07-03T16:38:15.192Z,1.83
2018-07-03T16:40:18.450Z,1.13
2018-07-03T16:42:21.547Z,1.20
2018-07-03T16:44:24.665Z,1.27
2018-07-03T16:46:27.936Z,0.80
2018-07-03T16:48:31.178Z,1.10
2018-07-03T16:50:34.271Z,0.93
2018-07-03T16:52:37.364Z,0.80
2018-07-03T16:54:40.324Z,0.93
2018-07-03T16:56:43.410Z,0.70
2018-07-03T16:58:46.514Z,0.83
2018-07-03T17:00:49.633Z,1.00
2018-07-03T17:02:52.741Z,1.00
2018-07-03T17:04:55.833Z,0.77
2018-07-03T17:06:58.936Z,0.90
2018-07-03T17:09:02.024Z,0.80
2018-07-03T17:11:06.119Z,0.80
2018-07-03T17:13:09.211Z,0.77
2018-07-03T17:15:12.292Z,0.90
2018-07-03T17:17:15.384Z,0.80
2018-07-03T17:19:23.913Z,1.10
2018-07-03T17:21:27.015Z,0.80
2018-07-03T17:23:30.109Z,0.90
2018-07-03T17:25:33.236Z,0.80
2018-07-03T17:27:36.324Z,1.00
2018-07-03T17:29:39.424Z,0.70
2018-07-03T17:31:42.511Z,0.80
2018-07-03T17:33:45.626Z,0.90
2018-07-03T17:35:48.684Z,1.57
2018-07-03T17:37:51.784Z,0.93
2018-07-03T17:40:06.313Z,0.80
2018-07-03T17:42:20.704Z,0.83
2018-07-03T17:44:33.391Z,0.90
2018-07-03T17:46:36.476Z,1.13
2018-07-03T17:48:39.556Z,0.80
2018-07-03T17:50:42.476Z,0.90
2018-07-03T17:52:45.593Z,0.73
2018-07-03T17:54:48.698Z,0.97
2018-07-03T17:56:51.799Z,0.80
2018-07-03T17:58:54.983Z,0.70
2018-07-03T18:00:58.076Z,1.03
2018-07-03T18:03:01.311Z,0.80
2018-07-03T18:05:04.815Z,0.80
2018-07-03T18:07:07.628Z,0.80
2018-07-03T18:09:11.207Z,0.80
2018-07-03T18:11:14.138Z,0.80
2018-07-03T18:13:17.142Z,0.70
2018-07-03T18:15:20.190Z,0.80
2018-07-03T18:17:23.128Z,1.20
2018-07-03T18:19:31.687Z,0.80
2018-07-03T18:21:34.629Z,1.00
2018-07-03T18:23:37.579Z,1.17
2018-07-03T18:25:40.558Z,1.00
2018-07-03T18:27:43.567Z,0.83
2018-07-03T18:29:46.487Z,0.80
2018-07-03T18:31:49.443Z,0.80
2018-07-03T18:33:52.544Z,0.80
2018-07-03T18:35:55.608Z,1.17
2018-07-03T18:37:58.546Z,0.70
2018-07-03T18:40:02.060Z,0.80
2018-07-03T18:42:05.306Z,0.80
2018-07-03T18:44:08.425Z,0.80
2018-07-03T18:46:11.575Z,0.73
2018-07-03T18:48:14.693Z,1.03
2018-07-03T18:50:17.796Z,0.80
2018-07-03T18:52:20.912Z,1.00
2018-07-03T18:54:24.049Z,0.90
2018-07-03T18:56:27.095Z,0.80
2018-07-03T18:58:30.951Z,0.97
2018-07-03T19:00:34.030Z,1.40
2018-07-03T19:02:37.125Z,1.00
2018-07-03T19:04:40.204Z,1.00
2018-07-03T19:06:43.302Z,1.13
2018-07-03T19:08:46.992Z,0.90
2018-07-03T19:10:50.075Z,1.20
2018-07-03T19:12:53.180Z,0.83
2018-07-03T19:14:56.299Z,0.90
2018-07-03T19:16:59.530Z,1.20
2018-07-03T19:19:02.724Z,0.90
2018-07-03T19:21:05.979Z,0.80
2018-07-03T19:23:09.060Z,0.93
2018-07-03T19:25:12.156Z,1.13
2018-07-03T19:27:15.240Z,0.80
2018-07-03T19:29:18.332Z,1.00
2018-07-03T19:31:21.421Z,0.80
2018-07-03T19:33:24.512Z,1.23
2018-07-03T19:35:27.620Z,1.10
2018-07-03T19:37:30.699Z,1.00
2018-07-03T19:39:33.856Z,1.10
2018-07-03T19:41:36.696Z,1.83
2018-07-03T19:43:39.805Z,2.13
2018-07-03T19:45:42.875Z,1.23
2018-07-03T19:47:45.957Z,1.20
2018-07-03T19:49:49.095Z,2.03
2018-07-03T19:51:52.507Z,1.40
2018-07-03T19:53:55.603Z,1.77
2018-07-03T19:55:59.372Z,1.70
2018-07-03T19:58:02.475Z,1.53
2018-07-03T20:00:05.809Z,1.33
2018-07-03T20:02:08.765Z,1.63
2018-07-03T20:04:11.844Z,1.40
2018-07-03T20:06:14.952Z,1.30
2018-07-03T20:08:17.822Z,1.57
2018-07-03T20:10:20.940Z,1.73
2018-07-03T20:12:24.049Z,2.63
2018-07-03T20:14:27.164Z,2.07
2018-07-03T20:16:30.276Z,1.90
2018-07-03T20:18:33.329Z,1.90
2018-07-03T20:20:36.621Z,1.60
2018-07-03T20:22:39.710Z,1.70
2018-07-03T20:24:42.806Z,1.80
2018-07-03T20:26:45.727Z,2.00
2018-07-03T20:28:48.818Z,2.10
2018-07-03T20:30:51.907Z,1.97
2018-07-03T20:32:55.017Z,1.73
2018-07-03T20:34:58.119Z,1.83
2018-07-03T20:37:01.773Z,1.93
2018-07-03T20:39:08.456Z,2.13
2018-07-03T20:41:11.553Z,2.50
2018-07-03T20:43:14.653Z,3.17
2018-07-03T20:45:18.728Z,2.60
2018-07-03T20:47:21.820Z,2.37
2018-07-03T20:49:24.917Z,2.63
2018-07-03T20:51:28.027Z,1.93
2018-07-03T20:53:31.142Z,2.27
2018-07-03T20:55:34.236Z,3.13
2018-07-03T20:57:38.307Z,2.40
2018-07-03T20:59:41.174Z,3.30
2018-07-03T21:01:44.263Z,2.97
2018-07-03T21:03:47.427Z,3.07
2018-07-03T21:05:50.626Z,3.20
2018-07-03T21:07:53.568Z,2.80
2018-07-03T21:09:56.657Z,3.77
2018-07-03T21:11:59.754Z,3.77
2018-07-03T21:14:02.842Z,3.30
2018-07-03T21:16:05.944Z,3.30
2018-07-03T21:18:09.026Z,3.00
2018-07-03T21:20:12.128Z,4.27
2018-07-03T21:22:15.901Z,3.30
2018-07-03T21:24:19.068Z,3.60
2018-07-03T21:26:22.236Z,3.40
2018-07-03T21:28:25.329Z,3.47
2018-07-03T21:30:28.423Z,3.30
2018-07-03T21:32:31.496Z,3.77
2018-07-03T21:34:34.604Z,3.50
2018-07-03T21:36:37.708Z,4.10
2018-07-03T21:38:40.813Z,3.80
2018-07-03T21:40:43.894Z,3.53
2018-07-03T21:42:46.995Z,3.47
2018-07-03T21:44:50.080Z,3.50
2018-07-03T21:46:53.352Z,4.77
2018-07-03T21:48:56.451Z,4.03
2018-07-03T21:50:59.559Z,4.20
2018-07-03T21:53:02.656Z,3.97
2018-07-03T21:55:05.753Z,4.53
2018-07-03T21:57:08.836Z,5.60
2018-07-03T21:59:12.431Z,4.53
2018-07-03T22:01:15.528Z,4.33
2018-07-03T22:03:18.652Z,3.90
2018-07-03T22:05:21.748Z,5.13
2018-07-03T22:07:24.831Z,5.07
2018-07-03T22:09:27.929Z,3.47
2018-07-03T22:11:31.012Z,5.23
2018-07-03T22:13:34.117Z,4.17
2018-07-03T22:15:37.291Z,3.90
2018-07-03T22:17:40.388Z,4.90
2018-07-03T22:19:43.474Z,4.17
2018-07-03T22:21:46.866Z,3.70
2018-07-03T22:23:49.947Z,4.00
2018-07-03T22:25:53.044Z,4.57
2018-07-03T22:27:56.160Z,4.30
2018-07-03T22:29:59.305Z,5.33
2018-07-03T22:32:02.484Z,4.30
2018-07-03T22:34:05.559Z,4.10
2018-07-03T22:36:08.635Z,4.20
2018-07-03T22:38:12.752Z,5.00
2018-07-03T22:40:15.949Z,5.03
2018-07-03T22:42:19.040Z,4.53
2018-07-03T22:44:22.147Z,4.80
2018-07-03T22:46:25.232Z,5.83
2018-07-03T22:48:28.329Z,4.87
2018-07-03T22:50:31.457Z,6.20
2018-07-03T22:52:34.568Z,5.50
2018-07-03T22:54:37.663Z,5.43
2018-07-03T22:56:40.952Z,4.90
2018-07-03T22:58:44.136Z,5.00
2018-07-03T23:00:47.264Z,5.90
2018-07-03T23:02:50.373Z,5.07
2018-07-03T23:04:53.475Z,5.40
2018-07-03T23:06:56.584Z,6.10
2018-07-03T23:08:59.734Z,5.40
2018-07-03T23:11:02.644Z,6.40
2018-07-03T23:13:05.835Z,5.43
2018-07-03T23:15:08.964Z,7.00
2018-07-03T23:17:12.077Z,5.67
2018-07-03T23:19:15.176Z,6.03
2018-07-03T23:21:18.275Z,6.53
2018-07-03T23:23:21.372Z,5.77
2018-07-03T23:25:24.500Z,6.53
2018-07-03T23:27:27.367Z,6.60
2018-07-03T23:29:30.467Z,6.20
2018-07-03T23:31:33.710Z,7.23
2018-07-03T23:33:36.876Z,6.57
2018-07-03T23:35:40.076Z,6.83
2018-07-03T23:37:43.172Z,6.40
2018-07-03T23:39:46.296Z,7.00
2018-07-03T23:41:49.412Z,7.33
2018-07-03T23:43:52.516Z,7.90
2018-07-03T23:45:58.595Z,6.37
2018-07-03T23:48:13.194Z,6.80
2018-07-03T23:50:28.223Z,7.23
2018-07-03T23:52:42.956Z,6.73
2018-07-03T23:54:57.366Z,6.10
2018-07-03T23:57:12.229Z,6.73
2018-07-03T23:59:26.764Z,6.43
